createdAt,value
2018-10-09T00:01:47.436Z,96632.64
2018-10-09T00:04:17.099Z,96634.64
2018-10-09T00:06:46.780Z,96635.97
2018-10-09T00:09:16.446Z,96642.41
2018-10-09T00:11:46.416Z,96636.50
2018-10-09T00:14:20.298Z,96632.55
2018-10-09T00:16:50.006Z,96636.50
2018-10-09T00:19:19.636Z,96633.30
2018-10-09T00:21:49.690Z,96631.91
2018-10-09T00:24:19.381Z,96629.48
2018-10-09T00:26:49.021Z,96624.92
2018-10-09T00:29:18.727Z,96626.73
2018-10-09T00:31:48.454Z,96624.81
2018-10-09T00:34:18.115Z,96621.86
2018-10-09T00:36:47.756Z,96623.19
2018-10-09T00:39:18.712Z,96618.38
2018-10-09T00:41:48.415Z,96619.39
2018-10-09T00:44:18.047Z,96620.15
2018-10-09T00:46:47.689Z,96619.05
2018-10-09T00:49:17.400Z,96614.15
2018-10-09T00:51:47.033Z,96622.38
2018-10-09T00:54:17.152Z,96618.09
2018-10-09T00:56:46.800Z,96619.95
2018-10-09T00:59:16.449Z,96616.93
2018-10-09T01:01:46.124Z,96615.30
2018-10-09T01:04:16.653Z,96612.11
2018-10-09T01:06:46.311Z,96610.23
2018-10-09T01:09:16.357Z,96609.66
2018-10-09T01:11:45.938Z,96611.80
2018-10-09T01:14:15.649Z,96613.07
2018-10-09T01:16:45.708Z,96613.82
2018-10-09T01:19:15.397Z,96609.88
2018-10-09T01:21:45.000Z,96614.70
2018-10-09T01:24:14.698Z,96606.31
2018-10-09T01:26:44.782Z,96610.10
2018-10-09T01:29:15.141Z,96618.53
2018-10-09T01:31:44.899Z,96620.03
2018-10-09T01:34:14.553Z,96617.13
2018-10-09T01:36:44.209Z,96624.67
2018-10-09T01:39:13.847Z,96621.81
2018-10-09T01:41:43.929Z,96626.63
2018-10-09T01:44:13.604Z,96627.81
2018-10-09T01:46:43.298Z,96629.64
2018-10-09T01:49:12.988Z,96625.44
2018-10-09T01:51:42.727Z,96631.30
2018-10-09T01:54:12.369Z,96633.34
2018-10-09T01:56:42.333Z,96640.24
2018-10-09T01:59:12.016Z,96635.11
2018-10-09T02:01:41.735Z,96637.71
2018-10-09T02:04:11.435Z,96630.53
2018-10-09T02:06:41.492Z,96628.30
2018-10-09T02:09:12.032Z,96628.45
2018-10-09T02:11:41.672Z,96624.91
2018-10-09T02:14:11.349Z,96624.07
2018-10-09T02:16:41.072Z,96623.48
2018-10-09T02:19:10.761Z,96622.84
2018-10-09T02:21:40.778Z,96624.88
2018-10-09T02:24:10.408Z,96621.41
2018-10-09T02:26:40.077Z,96621.63
2018-10-09T02:29:09.754Z,96625.69
2018-10-09T02:31:41.187Z,96630.66
2018-10-09T02:34:10.856Z,96631.41
2018-10-09T02:36:41.742Z,96630.59
2018-10-09T02:39:12.637Z,96633.27
2018-10-09T02:41:43.112Z,96632.16
2018-10-09T02:44:13.162Z,96635.86
2018-10-09T02:46:42.915Z,96640.09
2018-10-09T02:49:12.631Z,96632.29
2018-10-09T02:51:42.312Z,96630.53
2018-10-09T02:54:11.958Z,96635.83
2018-10-09T02:56:41.636Z,96635.19
2018-10-09T02:59:11.828Z,96638.66
2018-10-09T03:01:41.545Z,96642.07
2018-10-09T03:04:11.245Z,96636.70
2018-10-09T03:06:40.922Z,96635.60
2018-10-09T03:09:11.275Z,96628.00
2018-10-09T03:11:42.397Z,96622.89
2018-10-09T03:14:12.091Z,96622.34
2018-10-09T03:16:41.774Z,96617.47
2018-10-09T03:19:11.455Z,96620.65
2018-10-09T03:21:41.112Z,96612.36
2018-10-09T03:24:12.128Z,96612.30
2018-10-09T03:26:42.913Z,96611.16
2018-10-09T03:29:12.681Z,96613.23
2018-10-09T03:31:42.352Z,96610.05
2018-10-09T03:34:12.061Z,96603.84
2018-10-09T03:36:41.768Z,96604.84
2018-10-09T03:39:11.444Z,96609.87
2018-10-09T03:41:41.563Z,96611.95
2018-10-09T03:44:11.301Z,96614.62
2018-10-09T03:46:40.966Z,96611.04
2018-10-09T03:49:11.603Z,96616.00
2018-10-09T03:51:41.340Z,96610.61
2018-10-09T03:54:11.801Z,96611.55
2018-10-09T03:56:42.020Z,96616.40
2018-10-09T03:59:12.221Z,96622.02
2018-10-09T04:01:42.136Z,96620.02
2018-10-09T04:04:12.256Z,96611.21
2018-10-09T04:06:41.893Z,96613.36
2018-10-09T04:09:13.754Z,96606.47
2018-10-09T04:11:44.032Z,96599.55
2018-10-09T04:14:14.208Z,96603.55
2018-10-09T04:16:43.863Z,96608.25
2018-10-09T04:19:13.567Z,96611.73
2018-10-09T04:21:43.233Z,96611.21
2018-10-09T04:24:13.387Z,96613.69
2018-10-09T04:26:43.020Z,96612.42
2018-10-09T04:29:12.661Z,96610.98
2018-10-09T04:31:42.412Z,96605.52
2018-10-09T04:34:12.064Z,96603.90
2018-10-09T04:36:41.685Z,96601.30
2018-10-09T04:39:11.848Z,96610.92
2018-10-09T04:41:41.517Z,96606.99
2018-10-09T04:44:11.147Z,96610.17
2018-10-09T04:46:42.430Z,96608.84
2018-10-09T04:49:12.117Z,96616.61
2018-10-09T04:51:42.589Z,96620.76
2018-10-09T04:54:12.260Z,96619.88
2018-10-09T04:56:42.326Z,96621.20
2018-10-09T04:59:11.984Z,96618.55
2018-10-09T05:01:41.641Z,96616.92
2018-10-09T05:04:12.467Z,96619.58
2018-10-09T05:06:42.086Z,96620.88
2018-10-09T05:09:12.658Z,96620.81
2018-10-09T05:11:42.440Z,96618.37
2018-10-09T05:14:12.101Z,96618.89
2018-10-09T05:16:41.755Z,96623.40
2018-10-09T05:19:11.424Z,96624.73
2018-10-09T05:21:41.052Z,96628.39
2018-10-09T05:24:11.589Z,96623.52
2018-10-09T05:26:41.760Z,96629.22
2018-10-09T05:29:11.488Z,96630.80
2018-10-09T05:31:41.268Z,96634.54
2018-10-09T05:34:10.972Z,96637.50
2018-10-09T05:36:41.196Z,96635.13
2018-10-09T05:39:11.646Z,96644.22
2018-10-09T05:41:41.872Z,96642.30
2018-10-09T05:44:11.646Z,96638.02
2018-10-09T05:46:41.319Z,96635.35
2018-10-09T05:49:11.780Z,96644.52
2018-10-09T05:51:41.513Z,96646.14
2018-10-09T05:54:11.434Z,96641.70
2018-10-09T05:56:41.506Z,96643.59
2018-10-09T05:59:11.927Z,96647.36
2018-10-09T06:01:41.542Z,96653.28
2018-10-09T06:04:24.761Z,96646.98
2018-10-09T06:06:55.529Z,96650.67
2018-10-09T06:09:25.653Z,96647.70
2018-10-09T06:11:55.304Z,96654.86
2018-10-09T06:14:27.970Z,96650.36
2018-10-09T06:16:57.768Z,96657.02
2018-10-09T06:19:27.469Z,96656.08
2018-10-09T06:21:57.989Z,96661.13
2018-10-09T06:24:30.745Z,96659.20
2018-10-09T06:27:01.295Z,96653.23
2018-10-09T06:29:30.956Z,96653.42
2018-10-09T06:32:00.622Z,96651.78
2018-10-09T06:34:30.709Z,96653.84
2018-10-09T06:37:00.418Z,96645.48
2018-10-09T06:39:32.585Z,96644.64
2018-10-09T06:42:02.256Z,96639.79
2018-10-09T06:44:33.485Z,96644.84
2018-10-09T06:47:03.165Z,96640.50
2018-10-09T06:49:33.593Z,96638.55
2018-10-09T06:52:03.428Z,96635.64
2018-10-09T06:54:33.185Z,96632.63
2018-10-09T06:57:04.361Z,96628.02
2018-10-09T06:59:36.346Z,96629.90
2018-10-09T07:02:06.009Z,96634.53
2018-10-09T07:04:36.257Z,96634.94
2018-10-09T07:07:08.411Z,96644.05
2018-10-09T07:09:40.330Z,96658.03
2018-10-09T07:12:10.726Z,96667.34
2018-10-09T07:14:40.385Z,96677.00
2018-10-09T07:17:12.157Z,96682.03
2018-10-09T07:19:41.915Z,96692.37
2018-10-09T07:22:11.876Z,96692.49
2018-10-09T07:24:41.628Z,96693.19
2018-10-09T07:27:17.502Z,96697.61
2018-10-09T07:29:47.598Z,96707.13
2018-10-09T07:32:17.267Z,96708.86
2018-10-09T07:34:47.243Z,96711.35
2018-10-09T07:37:19.716Z,96711.94
2018-10-09T07:39:49.554Z,96715.48
2018-10-09T07:42:19.212Z,96724.13
2018-10-09T07:44:51.444Z,96729.28
2018-10-09T07:47:22.058Z,96724.19
2018-10-09T07:49:52.522Z,96727.95
2018-10-09T07:52:22.268Z,96730.03
2018-10-09T07:54:53.436Z,96731.55
2018-10-09T07:57:23.610Z,96739.29
2018-10-09T07:59:53.270Z,96740.34
2018-10-09T08:02:22.948Z,96742.75
2018-10-09T08:04:53.349Z,96748.70
2018-10-09T08:07:23.010Z,96750.33
2018-10-09T08:09:56.341Z,96753.01
2018-10-09T08:12:28.253Z,96755.16
2018-10-09T08:14:57.968Z,96755.69
2018-10-09T08:17:28.890Z,96754.12
2018-10-09T08:19:58.630Z,96745.58
2018-10-09T08:22:29.493Z,96751.88
2018-10-09T08:25:00.088Z,96751.66
2018-10-09T08:27:32.664Z,96748.74
2018-10-09T08:30:07.732Z,96744.48
2018-10-09T08:32:37.454Z,96742.34
2018-10-09T08:35:07.279Z,96747.21
2018-10-09T08:37:40.633Z,96743.98
2018-10-09T08:40:24.639Z,96744.23
2018-10-09T08:42:55.082Z,96738.53
2018-10-09T08:45:26.419Z,96733.35
2018-10-09T08:47:58.317Z,96727.61
2018-10-09T08:50:30.249Z,96728.58
2018-10-09T08:52:59.856Z,96733.88
2018-10-09T08:55:32.830Z,96737.59
2018-10-09T08:58:04.296Z,96731.32
2018-10-09T09:00:34.633Z,96734.42
2018-10-09T09:03:05.577Z,96736.43
2018-10-09T09:05:38.070Z,96744.78
2018-10-09T09:08:07.790Z,96734.47
2018-10-09T09:10:38.619Z,96734.37
2018-10-09T09:13:09.801Z,96733.72
2018-10-09T09:15:39.510Z,96739.37
2018-10-09T09:18:09.781Z,96741.95
2018-10-09T09:20:47.734Z,96743.33
2018-10-09T09:23:19.430Z,96744.38
2018-10-09T09:25:52.490Z,96740.52
2018-10-09T09:31:50.464Z,96743.52
2018-10-09T09:34:20.483Z,96743.08
2018-10-09T09:36:51.365Z,96740.59
2018-10-09T09:39:21.039Z,96747.80
2018-10-09T09:41:55.233Z,96749.13
2018-10-09T09:44:24.894Z,96740.08
2018-10-09T09:46:54.638Z,96741.02
2018-10-09T09:49:26.614Z,96738.49
2018-10-09T09:51:56.483Z,96738.00
2018-10-09T09:54:26.200Z,96741.63
2018-10-09T09:56:56.670Z,96738.80
2018-10-09T09:59:26.896Z,96740.01
2018-10-09T10:01:56.613Z,96738.33
2018-10-09T10:04:28.042Z,96745.53
2018-10-09T10:06:58.967Z,96742.43
2018-10-09T10:09:29.650Z,96749.47
2018-10-09T10:12:01.069Z,96746.20
2018-10-09T10:14:36.543Z,96743.46
2018-10-09T10:17:08.113Z,96748.20
2018-10-09T10:19:38.421Z,96747.66
2018-10-09T10:22:15.893Z,96744.39
2018-10-09T10:24:46.589Z,96751.69
2018-10-09T10:27:17.493Z,96756.34
2018-10-09T10:29:47.395Z,96751.72
2018-10-09T10:32:17.308Z,96752.59
2018-10-09T10:34:48.043Z,96751.34
2018-10-09T10:37:18.335Z,96749.95
2018-10-09T10:39:48.593Z,96754.50
2018-10-09T10:42:20.713Z,96748.78
2018-10-09T10:44:53.011Z,96750.20
2018-10-09T10:47:23.747Z,96752.40
2018-10-09T10:49:53.487Z,96746.46
2018-10-09T10:52:23.208Z,96736.81
2018-10-09T10:54:55.924Z,96740.63
2018-10-09T10:57:26.391Z,96744.17
2018-10-09T10:59:58.105Z,96745.53
2018-10-09T11:02:28.598Z,96736.01
2018-10-09T11:05:02.454Z,96736.59
2018-10-09T11:07:32.333Z,96737.36
2018-10-09T11:10:02.931Z,96734.30
2018-10-09T11:12:33.360Z,96737.78
2018-10-09T11:15:05.310Z,96736.84
2018-10-09T11:17:36.318Z,96738.62
2018-10-09T11:20:07.287Z,96733.53
2018-10-09T11:22:37.480Z,96729.25
2018-10-09T11:25:12.484Z,96725.22
2018-10-09T11:27:44.315Z,96728.63
2018-10-09T11:30:19.342Z,96728.06
2018-10-09T11:32:51.510Z,96729.08
2018-10-09T11:35:22.814Z,96725.86
2018-10-09T11:37:59.436Z,96722.30
2018-10-09T11:40:31.269Z,96718.06
2018-10-09T11:43:03.014Z,96723.37
2018-10-09T11:45:33.700Z,96723.69
2018-10-09T11:48:07.047Z,96718.42
2018-10-09T11:50:39.560Z,96717.48
2018-10-09T11:53:10.915Z,96708.45
2018-10-09T11:55:40.574Z,96710.94
2018-10-09T11:58:13.363Z,96707.15
2018-10-09T12:00:45.954Z,96706.07
2018-10-09T12:03:18.432Z,96697.72
2018-10-09T12:05:49.330Z,96700.91
2018-10-09T12:08:21.891Z,96698.95
2018-10-09T12:10:55.607Z,96699.08
2018-10-09T12:13:26.528Z,96696.61
2018-10-09T12:15:57.158Z,96687.95
2018-10-09T12:18:28.292Z,96687.18
2018-10-09T12:20:58.022Z,96684.27
2018-10-09T12:23:30.212Z,96681.09
2018-10-09T12:26:05.293Z,96684.49
2018-10-09T12:28:36.715Z,96680.16
2018-10-09T12:31:07.129Z,96679.48
2018-10-09T12:33:45.165Z,96667.89
2018-10-09T12:36:22.965Z,96672.02
2018-10-09T12:38:53.234Z,96678.08
2018-10-09T12:41:23.927Z,96675.68
2018-10-09T12:43:53.662Z,96677.03
2018-10-09T12:46:25.814Z,96671.80
2018-10-09T12:49:00.251Z,96666.69
2018-10-09T12:51:35.193Z,96663.97
2018-10-09T12:54:06.667Z,96663.36
2018-10-09T12:56:37.961Z,96661.66
2018-10-09T12:59:08.625Z,96664.08
2018-10-09T13:01:41.222Z,96662.61
2018-10-09T13:04:13.929Z,96666.69
2018-10-09T13:06:45.172Z,96657.28
2018-10-09T13:09:15.457Z,96659.62
2018-10-09T13:11:54.674Z,96658.52
2018-10-09T13:14:26.493Z,96658.41
2018-10-09T13:16:56.854Z,96656.97
2018-10-09T13:22:04.089Z,96647.10
2018-10-09T13:24:34.839Z,96655.94
2018-10-09T13:27:05.469Z,96651.48
2018-10-09T13:29:36.330Z,96649.69
2018-10-09T13:32:07.198Z,96649.33
2018-10-09T13:34:37.179Z,96649.83
2018-10-09T13:37:07.301Z,96651.91
2018-10-09T13:39:38.181Z,96653.09
2018-10-09T13:45:11.692Z,96650.24
2018-10-09T13:47:41.810Z,96646.00
2018-10-09T13:50:12.350Z,96651.10
2018-10-09T13:52:47.137Z,96645.20
2018-10-09T13:55:19.382Z,96641.67
2018-10-09T13:57:50.438Z,96644.25
2018-10-09T14:00:20.677Z,96644.25
2018-10-09T14:05:32.218Z,96640.92
2018-10-09T14:08:02.801Z,96645.05
2018-10-09T14:10:33.005Z,96641.67
2018-10-09T14:13:03.463Z,96640.00
2018-10-09T14:15:33.430Z,96639.74
2018-10-09T14:18:05.410Z,96642.34
2018-10-09T14:20:37.155Z,96639.93
2018-10-09T14:23:10.120Z,96632.83
2018-10-09T14:25:39.810Z,96640.09
2018-10-09T14:28:10.013Z,96637.81
2018-10-09T14:30:41.197Z,96639.91
2018-10-09T14:33:13.137Z,96643.53
2018-10-09T14:35:44.426Z,96635.16
2018-10-09T14:38:16.933Z,96631.70
2018-10-09T14:40:46.665Z,96633.75
2018-10-09T14:43:16.709Z,96630.02
2018-10-09T14:45:48.416Z,96629.52
2018-10-09T14:48:19.992Z,96628.84
2018-10-09T14:50:50.167Z,96627.48
2018-10-09T14:53:19.913Z,96632.95
2018-10-09T14:55:51.242Z,96635.50
2018-10-09T14:58:21.952Z,96633.13
2018-10-09T15:00:52.269Z,96634.53
2018-10-09T15:03:21.987Z,96628.30
2018-10-09T15:05:52.406Z,96633.05
2018-10-09T15:08:24.099Z,96626.81
2018-10-09T15:10:53.890Z,96630.97
2018-10-09T15:13:23.637Z,96637.92
2018-10-09T15:15:53.365Z,96630.53
2018-10-09T15:18:25.819Z,96639.09
2018-10-09T15:20:57.953Z,96645.17
2018-10-09T15:23:28.603Z,96635.52
2018-10-09T15:25:58.372Z,96642.41
2018-10-09T15:28:35.841Z,96644.91
2018-10-09T15:31:05.664Z,96644.61
2018-10-09T15:33:38.802Z,96647.50
2018-10-09T15:36:11.118Z,96648.78
2018-10-09T15:38:40.971Z,96646.24
2018-10-09T15:41:19.815Z,96643.45
2018-10-09T15:43:53.395Z,96646.70
2018-10-09T15:46:24.990Z,96648.53
2018-10-09T15:48:58.336Z,96650.10
2018-10-09T15:51:38.544Z,96654.13
2018-10-09T15:54:13.416Z,96653.52
2018-10-09T15:56:53.876Z,96654.53
2018-10-09T16:05:13.582Z,96659.14
2018-10-09T16:07:43.553Z,96656.30
2018-10-09T16:10:14.342Z,96664.83
2018-10-09T16:12:44.085Z,96660.63
2018-10-09T16:15:15.222Z,96658.32
2018-10-09T16:17:45.030Z,96657.34
2018-10-09T16:23:13.433Z,96662.09
2018-10-09T16:26:18.699Z,96654.37
2018-10-09T16:28:50.290Z,96654.42
2018-10-09T16:31:20.619Z,96656.14
2018-10-09T16:33:52.569Z,96657.55
2018-10-09T16:36:22.438Z,96656.52
2018-10-09T16:38:53.232Z,96661.18
2018-10-09T16:41:26.514Z,96664.72
2018-10-09T16:43:58.673Z,96664.48
2018-10-09T16:46:29.803Z,96667.47
2018-10-09T16:49:01.623Z,96668.03
2018-10-09T16:51:31.626Z,96665.86
2018-10-09T16:54:04.442Z,96675.59
2018-10-09T16:56:34.769Z,96674.52
2018-10-09T16:59:05.600Z,96677.50
2018-10-09T17:01:37.986Z,96682.07
2018-10-09T17:04:09.847Z,96685.55
2018-10-09T17:06:39.647Z,96685.81
2018-10-09T17:09:13.018Z,96684.73
2018-10-09T17:11:44.243Z,96689.29
2018-10-09T17:14:14.590Z,96684.18
2018-10-09T17:16:50.088Z,96687.67
2018-10-09T17:19:26.255Z,96683.89
2018-10-09T17:21:56.882Z,96690.56
2018-10-09T17:24:28.980Z,96684.63
2018-10-09T17:27:00.423Z,96688.86
2018-10-09T17:29:31.270Z,96685.61
2018-10-09T17:32:02.612Z,96682.64
2018-10-09T17:34:33.425Z,96687.17
2018-10-09T17:37:05.213Z,96697.89
2018-10-09T17:39:39.305Z,96692.74
2018-10-09T17:42:10.450Z,96691.61
2018-10-09T17:44:41.634Z,96695.61
2018-10-09T17:47:13.958Z,96692.62
2018-10-09T17:49:48.146Z,96697.72
2018-10-09T17:52:19.487Z,96701.43
2018-10-09T17:54:51.495Z,96708.92
2018-10-09T17:57:23.481Z,96709.69
2018-10-09T17:59:54.485Z,96712.83
2018-10-09T18:02:24.587Z,96714.17
2018-10-09T18:04:55.505Z,96711.71
2018-10-09T18:07:25.994Z,96712.83
2018-10-09T18:09:57.745Z,96714.95
2018-10-09T18:12:29.432Z,96713.03
2018-10-09T18:15:05.731Z,96714.03
2018-10-09T18:17:40.567Z,96716.41
2018-10-09T18:20:16.511Z,96720.12
2018-10-09T18:22:48.572Z,96726.49
2018-10-09T18:25:22.186Z,96720.81
2018-10-09T18:27:55.034Z,96716.98
2018-10-09T18:30:28.287Z,96719.59
2018-10-09T18:32:59.601Z,96718.51
2018-10-09T18:35:30.929Z,96726.52
2018-10-09T18:38:02.681Z,96727.78
2018-10-09T18:40:33.415Z,96732.27
2018-10-09T18:43:03.628Z,96732.76
2018-10-09T18:45:35.786Z,96734.30
2018-10-09T18:48:07.348Z,96732.40
2018-10-09T18:50:37.462Z,96736.10
2018-10-09T18:53:09.241Z,96736.52
2018-10-09T18:55:41.861Z,96735.12
2018-10-09T18:58:16.825Z,96734.80
2018-10-09T19:00:50.326Z,96735.02
2018-10-09T19:03:30.016Z,96737.89
2018-10-09T19:06:04.091Z,96735.36
2018-10-09T19:08:41.265Z,96736.42
2018-10-09T19:11:14.564Z,96743.88
2018-10-09T19:13:45.499Z,96743.06
2018-10-09T19:16:17.453Z,96747.28
2018-10-09T19:18:48.530Z,96741.34
2018-10-09T19:21:21.000Z,96740.73
2018-10-09T19:23:59.106Z,96741.16
2018-10-09T19:26:30.233Z,96748.58
2018-10-09T19:29:04.656Z,96745.61
2018-10-09T19:31:34.780Z,96750.14
2018-10-09T19:34:05.517Z,96747.66
2018-10-09T19:37:11.629Z,96747.84
2018-10-09T19:39:45.513Z,96757.64
2018-10-09T19:42:16.869Z,96761.55
2018-10-09T19:44:49.983Z,96759.05
2018-10-09T19:47:20.589Z,96756.27
2018-10-09T19:49:51.430Z,96764.05
2018-10-09T19:52:35.941Z,96768.21
2018-10-09T19:55:08.109Z,96770.82
2018-10-09T19:57:38.858Z,96772.87
2018-10-09T20:00:13.166Z,96770.67
2018-10-09T20:02:46.819Z,96775.70
2018-10-09T20:05:50.310Z,96770.02
2018-10-09T20:08:22.495Z,96774.22
2018-10-09T20:10:54.193Z,96773.62
2018-10-09T20:13:24.422Z,96773.80
2018-10-09T20:15:57.460Z,96771.05
2018-10-09T20:18:28.713Z,96768.56
2018-10-09T20:20:59.691Z,96775.98
2018-10-09T20:23:29.378Z,96782.55
2018-10-09T20:28:41.860Z,96779.22
2018-10-09T20:31:12.769Z,96778.88
2018-10-09T20:33:45.915Z,96777.23
2018-10-09T20:36:15.682Z,96780.37
2018-10-09T20:38:45.393Z,96780.17
2018-10-09T20:41:15.129Z,96774.25
2018-10-09T20:43:45.540Z,96776.11
2018-10-09T20:46:20.235Z,96769.92
2018-10-09T20:48:51.065Z,96778.69
2018-10-09T20:51:24.804Z,96771.73
2018-10-09T20:53:55.909Z,96771.38
2018-10-09T20:56:26.513Z,96775.30
2018-10-09T20:58:58.678Z,96768.47
2018-10-09T21:01:29.589Z,96769.45
2018-10-09T21:04:00.001Z,96768.56
2018-10-09T21:06:31.523Z,96761.97
2018-10-09T21:09:03.125Z,96757.44
2018-10-09T21:11:34.362Z,96758.66
2018-10-09T21:14:36.971Z,96758.19
2018-10-09T21:17:09.433Z,96764.38
2018-10-09T21:19:39.392Z,96760.34
2018-10-09T21:22:09.390Z,96758.12
2018-10-09T21:24:39.936Z,96752.73
2018-10-09T21:27:09.722Z,96751.37
2018-10-09T21:29:40.392Z,96744.80
2018-10-09T21:32:12.350Z,96743.70
2018-10-09T21:34:42.288Z,96745.55
2018-10-09T21:37:13.653Z,96742.04
2018-10-09T21:39:44.223Z,96741.69
2018-10-09T21:42:16.126Z,96736.03
2018-10-09T21:44:45.893Z,96735.97
2018-10-09T21:47:22.393Z,96740.95
2018-10-09T21:49:53.707Z,96732.13
2018-10-09T21:52:23.389Z,96733.00
2018-10-09T21:54:55.856Z,96739.52
2018-10-09T21:57:25.587Z,96737.37
2018-10-09T21:59:55.387Z,96729.76
2018-10-09T22:02:26.016Z,96731.87
2018-10-09T22:04:58.935Z,96733.30
2018-10-09T22:07:28.662Z,96731.67
2018-10-09T22:09:58.466Z,96731.45
2018-10-09T22:12:28.197Z,96735.52
2018-10-09T22:14:57.854Z,96737.37
2018-10-09T22:17:28.268Z,96738.93
2018-10-09T22:19:58.790Z,96731.97
2018-10-09T22:22:30.610Z,96736.91
2018-10-09T22:25:04.279Z,96730.54
2018-10-09T22:27:34.562Z,96721.95
2018-10-09T22:30:05.998Z,96722.67
2018-10-09T22:32:36.087Z,96718.61
2018-10-09T22:35:07.295Z,96717.63
2018-10-09T22:37:37.005Z,96718.90
2018-10-09T22:40:07.467Z,96716.72
2018-10-09T22:42:37.225Z,96727.52
2018-10-09T22:45:38.142Z,96720.48
2018-10-09T22:48:08.419Z,96725.05
2018-10-09T22:50:38.437Z,96725.14
2018-10-09T22:53:08.618Z,96720.45
2018-10-09T22:55:38.359Z,96726.97
2018-10-09T22:58:08.072Z,96721.98
2018-10-09T23:00:38.446Z,96724.13
2018-10-09T23:03:09.016Z,96719.96
2018-10-09T23:05:38.985Z,96715.08
2018-10-09T23:08:09.744Z,96718.79
2018-10-09T23:10:39.432Z,96718.62
2018-10-09T23:13:10.369Z,96720.54
2018-10-09T23:15:41.648Z,96718.91
2018-10-09T23:18:11.806Z,96710.27
2018-10-09T23:20:42.309Z,96711.73
2018-10-09T23:23:12.442Z,96719.52
2018-10-09T23:25:42.304Z,96714.38
2018-10-09T23:28:14.130Z,96713.20
2018-10-09T23:30:44.778Z,96711.58
2018-10-09T23:33:16.150Z,96715.94
2018-10-09T23:35:46.466Z,96715.64
2018-10-09T23:38:16.805Z,96710.38
2018-10-09T23:40:46.500Z,96712.08
2018-10-09T23:43:16.698Z,96712.75
2018-10-09T23:45:47.349Z,96715.05
2018-10-09T23:48:17.779Z,96712.65
2018-10-09T23:50:47.525Z,96711.58
2018-10-09T23:53:17.169Z,96707.77
2018-10-09T23:55:47.448Z,96711.06
2018-10-09T23:58:17.156Z,96705.73
